sensor_id;sensor_type;location;lat;lon;timestamp;temperature;humidity
5358;DHT22;2702;51.014;7.170;2022-07-22T00:01:26;16.10;99.90
5358;DHT22;2702;51.014;7.170;2022-07-22T00:03:52;16.20;99.90
5358;DHT22;2702;51.014;7.170;2022-07-22T00:06:18;16.10;99.90
5358;DHT22;2702;51.014;7.170;2022-07-22T00:08:44;16.10;99.90
5358;DHT22;2702;51.014;7.170;2022-07-22T00:11:10;16.10;99.90
5358;DHT22;2702;51.014;7.170;2022-07-22T00:13:36;16.20;99.90
5358;DHT22;2702;51.014;7.170;2022-07-22T00:16:02;16.20;99.90
5358;DHT22;2702;51.014;7.170;2022-07-22T00:18:28;16.20;99.90
5358;DHT22;2702;51.014;7.170;2022-07-22T00:20:55;16.20;99.90
5358;DHT22;2702;51.014;7.170;2022-07-22T00:23:21;16.20;99.90
5358;DHT22;2702;51.014;7.170;2022-07-22T00:25:47;16.10;99.90
5358;DHT22;2702;51.014;7.170;2022-07-22T00:28:13;16.10;99.90
5358;DHT22;2702;51.014;7.170;2022-07-22T00:30:39;16.00;99.90
5358;DHT22;2702;51.014;7.170;2022-07-22T00:33:05;16.00;99.90
5358;DHT22;2702;51.014;7.170;2022-07-22T00:35:31;15.90;99.90
5358;DHT22;2702;51.014;7.170;2022-07-22T00:37:57;15.90;99.90
5358;DHT22;2702;51.014;7.170;2022-07-22T00:40:23;16.00;99.90
5358;DHT22;2702;51.014;7.170;2022-07-22T00:42:49;15.90;99.90
5358;DHT22;2702;51.014;7.170;2022-07-22T00:45:16;15.90;99.90
5358;DHT22;2702;51.014;7.170;2022-07-22T00:47:42;15.80;99.90
5358;DHT22;2702;51.014;7.170;2022-07-22T00:50:08;15.80;99.90
5358;DHT22;2702;51.014;7.170;2022-07-22T00:52:34;15.80;99.90
5358;DHT22;2702;51.014;7.170;2022-07-22T00:55:01;15.80;99.90
5358;DHT22;2702;51.014;7.170;2022-07-22T00:57:27;15.80;99.90
5358;DHT22;2702;51.014;7.170;2022-07-22T00:59:53;15.80;99.90
5358;DHT22;2702;51.014;7.170;2022-07-22T01:02:19;15.80;99.90
5358;DHT22;2702;51.014;7.170;2022-07-22T01:04:45;15.80;99.90
5358;DHT22;2702;51.014;7.170;2022-07-22T01:07:11;15.80;99.90
5358;DHT22;2702;51.014;7.170;2022-07-22T01:09:37;15.70;99.90
5358;DHT22;2702;51.014;7.170;2022-07-22T01:12:03;15.80;99.90
5358;DHT22;2702;51.014;7.170;2022-07-22T01:14:29;15.90;99.90
5358;DHT22;2702;51.014;7.170;2022-07-22T01:16:55;15.80;99.90
5358;DHT22;2702;51.014;7.170;2022-07-22T01:19:21;15.80;99.90
5358;DHT22;2702;51.014;7.170;2022-07-22T01:21:47;15.90;99.90
5358;DHT22;2702;51.014;7.170;2022-07-22T01:24:13;15.80;99.90
5358;DHT22;2702;51.014;7.170;2022-07-22T01:26:39;15.80;99.90
5358;DHT22;2702;51.014;7.170;2022-07-22T01:29:07;15.90;99.90
5358;DHT22;2702;51.014;7.170;2022-07-22T01:31:33;15.80;99.90
5358;DHT22;2702;51.014;7.170;2022-07-22T01:33:59;15.90;99.90
5358;DHT22;2702;51.014;7.170;2022-07-22T01:36:25;15.90;99.90
5358;DHT22;2702;51.014;7.170;2022-07-22T01:38:51;15.90;99.90
5358;DHT22;2702;51.014;7.170;2022-07-22T01:41:17;15.90;99.90
5358;DHT22;2702;51.014;7.170;2022-07-22T01:43:43;15.90;99.90
5358;DHT22;2702;51.014;7.170;2022-07-22T01:46:09;15.90;99.90
5358;DHT22;2702;51.014;7.170;2022-07-22T01:48:35;15.90;99.90
5358;DHT22;2702;51.014;7.170;2022-07-22T01:51:01;15.90;99.90
5358;DHT22;2702;51.014;7.170;2022-07-22T01:53:27;15.80;99.90
5358;DHT22;2702;51.014;7.170;2022-07-22T01:55:53;15.80;99.90
5358;DHT22;2702;51.014;7.170;2022-07-22T01:58:19;15.80;99.90
5358;DHT22;2702;51.014;7.170;2022-07-22T02:00:45;15.70;99.90
5358;DHT22;2702;51.014;7.170;2022-07-22T02:03:11;15.70;99.90
5358;DHT22;2702;51.014;7.170;2022-07-22T02:05:37;15.70;99.90
5358;DHT22;2702;51.014;7.170;2022-07-22T02:08:05;15.70;99.90
5358;DHT22;2702;51.014;7.170;2022-07-22T02:10:32;15.60;99.90
5358;DHT22;2702;51.014;7.170;2022-07-22T02:12:58;15.60;99.90
5358;DHT22;2702;51.014;7.170;2022-07-22T02:15:28;15.50;99.90
5358;DHT22;2702;51.014;7.170;2022-07-22T02:17:55;15.50;99.90
5358;DHT22;2702;51.014;7.170;2022-07-22T02:20:22;15.50;99.90
5358;DHT22;2702;51.014;7.170;2022-07-22T02:22:48;15.60;99.90
5358;DHT22;2702;51.014;7.170;2022-07-22T02:25:14;15.60;99.90
5358;DHT22;2702;51.014;7.170;2022-07-22T02:27:41;15.70;99.90
5358;DHT22;2702;51.014;7.170;2022-07-22T02:30:08;15.70;99.90
5358;DHT22;2702;51.014;7.170;2022-07-22T02:32:34;15.70;99.90
5358;DHT22;2702;51.014;7.170;2022-07-22T02:35:00;15.70;99.90
5358;DHT22;2702;51.014;7.170;2022-07-22T02:37:26;15.60;99.90
5358;DHT22;2702;51.014;7.170;2022-07-22T02:39:52;15.70;99.90
5358;DHT22;2702;51.014;7.170;2022-07-22T02:42:18;15.60;99.90
5358;DHT22;2702;51.014;7.170;2022-07-22T02:44:43;15.60;99.90
5358;DHT22;2702;51.014;7.170;2022-07-22T02:47:09;15.70;99.90
5358;DHT22;2702;51.014;7.170;2022-07-22T02:49:35;15.60;99.90
5358;DHT22;2702;51.014;7.170;2022-07-22T02:52:01;15.50;99.90
5358;DHT22;2702;51.014;7.170;2022-07-22T02:54:27;15.50;99.90
5358;DHT22;2702;51.014;7.170;2022-07-22T02:56:53;15.50;99.90
5358;DHT22;2702;51.014;7.170;2022-07-22T02:59:19;15.40;99.90
5358;DHT22;2702;51.014;7.170;2022-07-22T03:01:44;15.40;99.90
5358;DHT22;2702;51.014;7.170;2022-07-22T03:04:10;15.40;99.90
5358;DHT22;2702;51.014;7.170;2022-07-22T03:06:36;15.30;99.90
5358;DHT22;2702;51.014;7.170;2022-07-22T03:09:02;15.30;99.90
5358;DHT22;2702;51.014;7.170;2022-07-22T03:11:29;15.40;99.90
5358;DHT22;2702;51.014;7.170;2022-07-22T03:13:55;15.30;99.90
5358;DHT22;2702;51.014;7.170;2022-07-22T03:16:21;15.30;99.90
5358;DHT22;2702;51.014;7.170;2022-07-22T03:18:47;15.30;99.90
5358;DHT22;2702;51.014;7.170;2022-07-22T03:21:13;15.30;99.90
5358;DHT22;2702;51.014;7.170;2022-07-22T03:23:39;15.30;99.90
5358;DHT22;2702;51.014;7.170;2022-07-22T03:26:05;15.30;99.90
5358;DHT22;2702;51.014;7.170;2022-07-22T03:28:30;15.30;99.90
5358;DHT22;2702;51.014;7.170;2022-07-22T03:30:56;15.30;99.90
5358;DHT22;2702;51.014;7.170;2022-07-22T03:33:22;15.20;99.90
5358;DHT22;2702;51.014;7.170;2022-07-22T03:35:48;15.20;99.90
5358;DHT22;2702;51.014;7.170;2022-07-22T03:38:14;15.30;99.90
5358;DHT22;2702;51.014;7.170;2022-07-22T03:40:40;15.30;99.90
5358;DHT22;2702;51.014;7.170;2022-07-22T03:43:06;15.30;99.90
5358;DHT22;2702;51.014;7.170;2022-07-22T03:45:32;15.50;99.90
5358;DHT22;2702;51.014;7.170;2022-07-22T03:47:58;15.50;99.90
5358;DHT22;2702;51.014;7.170;2022-07-22T03:50:24;15.50;99.90
5358;DHT22;2702;51.014;7.170;2022-07-22T03:52:51;15.50;99.90
5358;DHT22;2702;51.014;7.170;2022-07-22T03:55:16;15.40;99.90
5358;DHT22;2702;51.014;7.170;2022-07-22T03:57:42;15.50;99.90
5358;DHT22;2702;51.014;7.170;2022-07-22T04:00:09;15.40;99.90
5358;DHT22;2702;51.014;7.170;2022-07-22T04:02:35;15.50;99.90
5358;DHT22;2702;51.014;7.170;2022-07-22T04:05:04;15.50;99.90
5358;DHT22;2702;51.014;7.170;2022-07-22T04:07:31;15.50;99.90
5358;DHT22;2702;51.014;7.170;2022-07-22T04:09:57;15.50;99.90
5358;DHT22;2702;51.014;7.170;2022-07-22T04:12:34;15.50;99.90
5358;DHT22;2702;51.014;7.170;2022-07-22T04:15:04;15.50;99.90
5358;DHT22;2702;51.014;7.170;2022-07-22T04:17:31;15.50;99.90
5358;DHT22;2702;51.014;7.170;2022-07-22T04:19:57;15.40;99.90
5358;DHT22;2702;51.014;7.170;2022-07-22T04:22:23;15.50;99.90
5358;DHT22;2702;51.014;7.170;2022-07-22T04:24:49;15.50;99.90
5358;DHT22;2702;51.014;7.170;2022-07-22T04:27:15;15.50;99.90
5358;DHT22;2702;51.014;7.170;2022-07-22T04:29:41;15.60;99.90
5358;DHT22;2702;51.014;7.170;2022-07-22T04:32:07;15.80;99.90
5358;DHT22;2702;51.014;7.170;2022-07-22T04:34:33;15.90;99.90
5358;DHT22;2702;51.014;7.170;2022-07-22T04:36:59;16.00;99.90
5358;DHT22;2702;51.014;7.170;2022-07-22T04:39:25;15.90;99.90
5358;DHT22;2702;51.014;7.170;2022-07-22T04:41:50;16.00;99.90
5358;DHT22;2702;51.014;7.170;2022-07-22T04:44:16;16.10;99.90
5358;DHT22;2702;51.014;7.170;2022-07-22T04:46:42;16.10;99.90
5358;DHT22;2702;51.014;7.170;2022-07-22T04:49:08;16.30;99.90
5358;DHT22;2702;51.014;7.170;2022-07-22T04:51:34;16.30;99.90
5358;DHT22;2702;51.014;7.170;2022-07-22T04:53:59;16.40;99.90
5358;DHT22;2702;51.014;7.170;2022-07-22T04:56:25;16.40;99.90
5358;DHT22;2702;51.014;7.170;2022-07-22T04:58:51;16.40;99.90
5358;DHT22;2702;51.014;7.170;2022-07-22T05:01:17;16.40;99.90
5358;DHT22;2702;51.014;7.170;2022-07-22T05:03:43;16.40;99.90
5358;DHT22;2702;51.014;7.170;2022-07-22T05:06:09;16.30;99.90
5358;DHT22;2702;51.014;7.170;2022-07-22T05:08:35;16.30;99.90
5358;DHT22;2702;51.014;7.170;2022-07-22T05:11:01;16.30;99.90
5358;DHT22;2702;51.014;7.170;2022-07-22T05:13:28;16.40;99.90
5358;DHT22;2702;51.014;7.170;2022-07-22T05:15:53;16.40;99.90
5358;DHT22;2702;51.014;7.170;2022-07-22T05:18:19;16.50;99.90
5358;DHT22;2702;51.014;7.170;2022-07-22T05:20:45;16.60;99.90
5358;DHT22;2702;51.014;7.170;2022-07-22T05:23:11;16.60;99.90
5358;DHT22;2702;51.014;7.170;2022-07-22T05:25:37;16.70;99.90
5358;DHT22;2702;51.014;7.170;2022-07-22T05:28:03;16.70;99.90
5358;DHT22;2702;51.014;7.170;2022-07-22T05:30:30;16.60;99.90
5358;DHT22;2702;51.014;7.170;2022-07-22T05:32:55;16.70;99.90
5358;DHT22;2702;51.014;7.170;2022-07-22T05:35:21;16.60;99.90
5358;DHT22;2702;51.014;7.170;2022-07-22T05:37:47;16.70;99.90
5358;DHT22;2702;51.014;7.170;2022-07-22T05:40:13;16.80;99.90
5358;DHT22;2702;51.014;7.170;2022-07-22T05:42:39;16.80;99.90
5358;DHT22;2702;51.014;7.170;2022-07-22T05:45:06;16.80;99.90
5358;DHT22;2702;51.014;7.170;2022-07-22T05:47:32;16.90;99.90
5358;DHT22;2702;51.014;7.170;2022-07-22T05:49:58;16.90;99.90
5358;DHT22;2702;51.014;7.170;2022-07-22T05:52:24;17.00;99.90
5358;DHT22;2702;51.014;7.170;2022-07-22T05:54:50;17.00;99.90
5358;DHT22;2702;51.014;7.170;2022-07-22T05:57:15;16.90;99.90
5358;DHT22;2702;51.014;7.170;2022-07-22T05:59:41;16.90;99.90
5358;DHT22;2702;51.014;7.170;2022-07-22T06:02:08;17.00;99.90
5358;DHT22;2702;51.014;7.170;2022-07-22T06:04:34;17.00;99.90
5358;DHT22;2702;51.014;7.170;2022-07-22T06:07:00;17.00;99.90
5358;DHT22;2702;51.014;7.170;2022-07-22T06:09:26;17.00;99.90
5358;DHT22;2702;51.014;7.170;2022-07-22T06:11:52;17.10;99.90
5358;DHT22;2702;51.014;7.170;2022-07-22T06:14:20;17.20;99.90
5358;DHT22;2702;51.014;7.170;2022-07-22T06:16:46;17.30;99.90
5358;DHT22;2702;51.014;7.170;2022-07-22T06:19:12;17.30;99.90
5358;DHT22;2702;51.014;7.170;2022-07-22T06:21:38;17.40;99.90
5358;DHT22;2702;51.014;7.170;2022-07-22T06:24:05;17.40;99.90
5358;DHT22;2702;51.014;7.170;2022-07-22T06:26:30;17.40;99.90
5358;DHT22;2702;51.014;7.170;2022-07-22T06:28:56;17.50;99.90
5358;DHT22;2702;51.014;7.170;2022-07-22T06:31:22;17.50;99.90
5358;DHT22;2702;51.014;7.170;2022-07-22T06:33:48;17.50;99.90
5358;DHT22;2702;51.014;7.170;2022-07-22T06:36:14;17.50;99.90
5358;DHT22;2702;51.014;7.170;2022-07-22T06:38:40;17.50;99.90
5358;DHT22;2702;51.014;7.170;2022-07-22T06:41:06;17.50;99.90
5358;DHT22;2702;51.014;7.170;2022-07-22T06:43:32;17.50;99.90
5358;DHT22;2702;51.014;7.170;2022-07-22T06:45:58;17.40;99.90
5358;DHT22;2702;51.014;7.170;2022-07-22T06:48:24;17.40;99.90
5358;DHT22;2702;51.014;7.170;2022-07-22T06:50:50;17.40;99.90
5358;DHT22;2702;51.014;7.170;2022-07-22T06:53:16;17.40;99.90
5358;DHT22;2702;51.014;7.170;2022-07-22T06:55:44;17.40;99.90
5358;DHT22;2702;51.014;7.170;2022-07-22T06:58:11;17.40;99.90
5358;DHT22;2702;51.014;7.170;2022-07-22T07:00:36;17.40;99.90
5358;DHT22;2702;51.014;7.170;2022-07-22T07:03:02;17.40;99.90
5358;DHT22;2702;51.014;7.170;2022-07-22T07:05:28;17.40;99.90
5358;DHT22;2702;51.014;7.170;2022-07-22T07:07:55;17.30;99.90
5358;DHT22;2702;51.014;7.170;2022-07-22T07:10:21;17.30;99.90
5358;DHT22;2702;51.014;7.170;2022-07-22T07:12:47;17.20;99.90
5358;DHT22;2702;51.014;7.170;2022-07-22T07:15:13;17.20;99.90
5358;DHT22;2702;51.014;7.170;2022-07-22T07:17:39;17.20;99.90
5358;DHT22;2702;51.014;7.170;2022-07-22T07:20:06;17.20;99.90
5358;DHT22;2702;51.014;7.170;2022-07-22T07:22:32;17.20;99.90
5358;DHT22;2702;51.014;7.170;2022-07-22T07:25:03;17.20;99.90
5358;DHT22;2702;51.014;7.170;2022-07-22T07:27:29;17.10;99.90
5358;DHT22;2702;51.014;7.170;2022-07-22T07:29:55;17.20;99.90
5358;DHT22;2702;51.014;7.170;2022-07-22T07:32:21;17.20;99.90
5358;DHT22;2702;51.014;7.170;2022-07-22T07:34:49;17.10;99.90
5358;DHT22;2702;51.014;7.170;2022-07-22T07:37:15;17.10;99.90
5358;DHT22;2702;51.014;7.170;2022-07-22T07:39:41;17.20;99.90
5358;DHT22;2702;51.014;7.170;2022-07-22T07:42:07;17.10;99.90
5358;DHT22;2702;51.014;7.170;2022-07-22T07:44:33;17.00;99.90
5358;DHT22;2702;51.014;7.170;2022-07-22T07:46:59;17.10;99.90
5358;DHT22;2702;51.014;7.170;2022-07-22T07:49:25;17.10;99.90
5358;DHT22;2702;51.014;7.170;2022-07-22T07:51:51;17.10;99.90
5358;DHT22;2702;51.014;7.170;2022-07-22T07:54:17;17.10;99.90
5358;DHT22;2702;51.014;7.170;2022-07-22T07:56:43;17.10;99.90
5358;DHT22;2702;51.014;7.170;2022-07-22T07:59:09;17.10;99.90
5358;DHT22;2702;51.014;7.170;2022-07-22T08:01:35;17.00;99.90
5358;DHT22;2702;51.014;7.170;2022-07-22T08:04:01;17.00;99.90
5358;DHT22;2702;51.014;7.170;2022-07-22T08:06:27;17.00;99.90
5358;DHT22;2702;51.014;7.170;2022-07-22T08:08:53;17.10;99.90
5358;DHT22;2702;51.014;7.170;2022-07-22T08:11:19;17.10;99.90
5358;DHT22;2702;51.014;7.170;2022-07-22T08:13:45;17.10;99.90
5358;DHT22;2702;51.014;7.170;2022-07-22T08:16:11;17.10;99.90
5358;DHT22;2702;51.014;7.170;2022-07-22T08:18:36;17.10;99.90
5358;DHT22;2702;51.014;7.170;2022-07-22T08:21:03;17.10;99.90
5358;DHT22;2702;51.014;7.170;2022-07-22T08:23:28;16.90;99.90
5358;DHT22;2702;51.014;7.170;2022-07-22T08:25:55;16.90;99.90
5358;DHT22;2702;51.014;7.170;2022-07-22T08:28:21;16.90;99.90
5358;DHT22;2702;51.014;7.170;2022-07-22T08:30:47;17.00;99.90
5358;DHT22;2702;51.014;7.170;2022-07-22T08:33:13;16.90;99.90
5358;DHT22;2702;51.014;7.170;2022-07-22T08:35:38;16.90;99.90
5358;DHT22;2702;51.014;7.170;2022-07-22T08:38:04;16.90;99.90
5358;DHT22;2702;51.014;7.170;2022-07-22T08:40:31;17.00;99.90
5358;DHT22;2702;51.014;7.170;2022-07-22T08:42:57;17.10;99.90
5358;DHT22;2702;51.014;7.170;2022-07-22T08:45:29;17.20;99.90
5358;DHT22;2702;51.014;7.170;2022-07-22T08:47:56;17.10;99.90
5358;DHT22;2702;51.014;7.170;2022-07-22T08:50:23;17.00;99.90
5358;DHT22;2702;51.014;7.170;2022-07-22T08:52:48;17.10;99.90
5358;DHT22;2702;51.014;7.170;2022-07-22T08:55:16;17.20;99.90
5358;DHT22;2702;51.014;7.170;2022-07-22T08:57:46;17.20;99.90
5358;DHT22;2702;51.014;7.170;2022-07-22T09:00:18;17.10;99.90
5358;DHT22;2702;51.014;7.170;2022-07-22T09:02:45;17.30;99.90
5358;DHT22;2702;51.014;7.170;2022-07-22T09:05:12;17.40;99.90
5358;DHT22;2702;51.014;7.170;2022-07-22T09:07:44;17.50;99.90
5358;DHT22;2702;51.014;7.170;2022-07-22T09:10:16;17.60;99.90
5358;DHT22;2702;51.014;7.170;2022-07-22T09:15:30;17.70;99.90
5358;DHT22;2702;51.014;7.170;2022-07-22T09:17:59;17.80;99.90
5358;DHT22;2702;51.014;7.170;2022-07-22T09:20:26;17.80;99.90
5358;DHT22;2702;51.014;7.170;2022-07-22T09:22:52;17.80;99.90
5358;DHT22;2702;51.014;7.170;2022-07-22T09:25:32;17.70;99.90
5358;DHT22;2702;51.014;7.170;2022-07-22T09:30:37;17.70;99.90
5358;DHT22;2702;51.014;7.170;2022-07-22T09:33:04;17.70;99.90
5358;DHT22;2702;51.014;7.170;2022-07-22T09:35:30;17.70;99.90
5358;DHT22;2702;51.014;7.170;2022-07-22T09:38:01;17.70;99.90
5358;DHT22;2702;51.014;7.170;2022-07-22T09:40:29;17.70;99.90
5358;DHT22;2702;51.014;7.170;2022-07-22T09:42:57;17.80;99.90
5358;DHT22;2702;51.014;7.170;2022-07-22T09:45:26;17.90;99.90
5358;DHT22;2702;51.014;7.170;2022-07-22T09:47:57;17.70;99.90
5358;DHT22;2702;51.014;7.170;2022-07-22T09:50:26;17.70;99.90
5358;DHT22;2702;51.014;7.170;2022-07-22T09:52:56;17.90;99.90
5358;DHT22;2702;51.014;7.170;2022-07-22T09:55:23;18.00;99.90
5358;DHT22;2702;51.014;7.170;2022-07-22T09:57:50;17.90;99.90
5358;DHT22;2702;51.014;7.170;2022-07-22T10:00:19;17.90;99.90
5358;DHT22;2702;51.014;7.170;2022-07-22T10:05:15;17.90;99.90
5358;DHT22;2702;51.014;7.170;2022-07-22T10:07:43;18.10;99.90
5358;DHT22;2702;51.014;7.170;2022-07-22T10:10:13;18.10;99.90
5358;DHT22;2702;51.014;7.170;2022-07-22T10:12:41;18.00;99.90
5358;DHT22;2702;51.014;7.170;2022-07-22T10:15:08;18.10;99.90
5358;DHT22;2702;51.014;7.170;2022-07-22T10:17:41;18.30;99.90
5358;DHT22;2702;51.014;7.170;2022-07-22T10:20:09;18.40;99.90
5358;DHT22;2702;51.014;7.170;2022-07-22T10:25:09;18.50;99.90
5358;DHT22;2702;51.014;7.170;2022-07-22T10:27:50;18.60;99.90
5358;DHT22;2702;51.014;7.170;2022-07-22T10:30:39;18.60;99.90
5358;DHT22;2702;51.014;7.170;2022-07-22T10:35:59;18.70;99.90
5358;DHT22;2702;51.014;7.170;2022-07-22T10:38:25;18.80;99.90
5358;DHT22;2702;51.014;7.170;2022-07-22T10:40:59;19.10;99.90
5358;DHT22;2702;51.014;7.170;2022-07-22T10:46:01;19.30;99.90
5358;DHT22;2702;51.014;7.170;2022-07-22T10:51:18;19.40;99.90
5358;DHT22;2702;51.014;7.170;2022-07-22T10:56:32;19.50;99.90
5358;DHT22;2702;51.014;7.170;2022-07-22T10:59:15;19.50;99.90
5358;DHT22;2702;51.014;7.170;2022-07-22T11:01:44;19.90;99.90
5358;DHT22;2702;51.014;7.170;2022-07-22T11:04:21;20.00;99.90
5358;DHT22;2702;51.014;7.170;2022-07-22T11:06:50;20.20;99.90
5358;DHT22;2702;51.014;7.170;2022-07-22T11:09:18;20.40;99.90
5358;DHT22;2702;51.014;7.170;2022-07-22T11:11:50;20.60;99.90
5358;DHT22;2702;51.014;7.170;2022-07-22T11:14:20;20.80;99.90
5358;DHT22;2702;51.014;7.170;2022-07-22T11:16:48;21.00;99.90
5358;DHT22;2702;51.014;7.170;2022-07-22T11:19:26;21.40;99.90
5358;DHT22;2702;51.014;7.170;2022-07-22T11:21:55;21.80;99.90
5358;DHT22;2702;51.014;7.170;2022-07-22T11:24:23;22.00;99.90
5358;DHT22;2702;51.014;7.170;2022-07-22T11:26:52;22.50;99.90
5358;DHT22;2702;51.014;7.170;2022-07-22T11:29:31;22.80;99.90
5358;DHT22;2702;51.014;7.170;2022-07-22T11:32:00;22.80;99.90
5358;DHT22;2702;51.014;7.170;2022-07-22T11:34:27;22.30;99.90
5358;DHT22;2702;51.014;7.170;2022-07-22T11:36:54;21.80;99.90
5358;DHT22;2702;51.014;7.170;2022-07-22T11:39:23;20.90;99.90
5358;DHT22;2702;51.014;7.170;2022-07-22T11:41:51;21.20;99.90
5358;DHT22;2702;51.014;7.170;2022-07-22T11:44:19;21.10;99.90
5358;DHT22;2702;51.014;7.170;2022-07-22T11:46:46;21.20;99.90
5358;DHT22;2702;51.014;7.170;2022-07-22T11:49:17;21.20;99.90
5358;DHT22;2702;51.014;7.170;2022-07-22T11:51:44;21.00;99.90
5358;DHT22;2702;51.014;7.170;2022-07-22T11:54:10;21.20;99.90
5358;DHT22;2702;51.014;7.170;2022-07-22T11:56:37;21.30;99.90
5358;DHT22;2702;51.014;7.170;2022-07-22T11:59:04;21.40;99.90
5358;DHT22;2702;51.014;7.170;2022-07-22T12:01:35;21.40;99.90
5358;DHT22;2702;51.014;7.170;2022-07-22T12:04:06;21.40;99.90
5358;DHT22;2702;51.014;7.170;2022-07-22T12:06:35;21.50;99.90
5358;DHT22;2702;51.014;7.170;2022-07-22T12:09:14;21.40;99.90
5358;DHT22;2702;51.014;7.170;2022-07-22T12:11:43;21.60;99.90
5358;DHT22;2702;51.014;7.170;2022-07-22T12:14:16;21.80;99.90
5358;DHT22;2702;51.014;7.170;2022-07-22T12:16:47;21.90;99.90
5358;DHT22;2702;51.014;7.170;2022-07-22T12:19:18;22.00;99.90
5358;DHT22;2702;51.014;7.170;2022-07-22T12:24:27;22.20;99.90
5358;DHT22;2702;51.014;7.170;2022-07-22T12:26:55;22.10;99.90
5358;DHT22;2702;51.014;7.170;2022-07-22T12:29:41;22.20;99.90
5358;DHT22;2702;51.014;7.170;2022-07-22T12:34:46;21.80;99.90
5358;DHT22;2702;51.014;7.170;2022-07-22T12:39:38;22.20;99.90
5358;DHT22;2702;51.014;7.170;2022-07-22T12:42:16;22.30;99.90
5358;DHT22;2702;51.014;7.170;2022-07-22T12:45:03;22.40;99.90
5358;DHT22;2702;51.014;7.170;2022-07-22T12:52:52;22.40;99.90
5358;DHT22;2702;51.014;7.170;2022-07-22T12:55:18;22.70;99.90
5358;DHT22;2702;51.014;7.170;2022-07-22T12:57:45;23.00;99.90
5358;DHT22;2702;51.014;7.170;2022-07-22T13:00:16;23.10;99.90
5358;DHT22;2702;51.014;7.170;2022-07-22T13:02:42;22.70;99.90
5358;DHT22;2702;51.014;7.170;2022-07-22T13:05:08;22.50;99.90
5358;DHT22;2702;51.014;7.170;2022-07-22T13:07:34;22.70;99.90
5358;DHT22;2702;51.014;7.170;2022-07-22T13:10:00;23.00;99.90
5358;DHT22;2702;51.014;7.170;2022-07-22T13:12:26;23.10;99.90
5358;DHT22;2702;51.014;7.170;2022-07-22T13:14:52;23.10;99.90
5358;DHT22;2702;51.014;7.170;2022-07-22T13:17:18;23.20;99.90
5358;DHT22;2702;51.014;7.170;2022-07-22T13:19:45;23.60;99.90
5358;DHT22;2702;51.014;7.170;2022-07-22T13:22:11;23.70;99.90
5358;DHT22;2702;51.014;7.170;2022-07-22T13:24:37;23.70;99.90
5358;DHT22;2702;51.014;7.170;2022-07-22T13:27:03;23.60;99.90
5358;DHT22;2702;51.014;7.170;2022-07-22T13:29:29;23.50;99.90
5358;DHT22;2702;51.014;7.170;2022-07-22T13:31:55;23.20;99.90
5358;DHT22;2702;51.014;7.170;2022-07-22T13:34:21;23.00;99.90
5358;DHT22;2702;51.014;7.170;2022-07-22T13:36:46;22.90;99.90
5358;DHT22;2702;51.014;7.170;2022-07-22T13:39:12;22.70;99.90
5358;DHT22;2702;51.014;7.170;2022-07-22T13:41:41;22.80;99.90
5358;DHT22;2702;51.014;7.170;2022-07-22T13:44:07;23.00;99.90
5358;DHT22;2702;51.014;7.170;2022-07-22T13:46:36;23.00;99.90
5358;DHT22;2702;51.014;7.170;2022-07-22T13:49:03;23.20;99.90
5358;DHT22;2702;51.014;7.170;2022-07-22T13:51:29;23.20;99.90
5358;DHT22;2702;51.014;7.170;2022-07-22T13:53:56;23.20;99.90
5358;DHT22;2702;51.014;7.170;2022-07-22T13:56:22;23.40;99.90
5358;DHT22;2702;51.014;7.170;2022-07-22T13:58:48;23.40;99.90
5358;DHT22;2702;51.014;7.170;2022-07-22T14:01:15;23.80;99.90
5358;DHT22;2702;51.014;7.170;2022-07-22T14:03:41;24.00;99.90
5358;DHT22;2702;51.014;7.170;2022-07-22T14:06:07;24.20;99.90
5358;DHT22;2702;51.014;7.170;2022-07-22T14:08:35;24.60;99.90
5358;DHT22;2702;51.014;7.170;2022-07-22T14:11:02;24.70;99.90
5358;DHT22;2702;51.014;7.170;2022-07-22T14:13:31;24.70;99.90
5358;DHT22;2702;51.014;7.170;2022-07-22T14:15:57;24.30;99.90
5358;DHT22;2702;51.014;7.170;2022-07-22T14:18:43;23.70;99.90
5358;DHT22;2702;51.014;7.170;2022-07-22T14:21:09;23.70;99.90
5358;DHT22;2702;51.014;7.170;2022-07-22T14:23:34;23.80;99.90
5358;DHT22;2702;51.014;7.170;2022-07-22T14:26:00;23.80;99.90
5358;DHT22;2702;51.014;7.170;2022-07-22T14:28:26;24.10;99.90
5358;DHT22;2702;51.014;7.170;2022-07-22T14:30:52;24.20;99.90
5358;DHT22;2702;51.014;7.170;2022-07-22T14:33:18;24.40;99.90
5358;DHT22;2702;51.014;7.170;2022-07-22T14:35:44;24.20;99.90
5358;DHT22;2702;51.014;7.170;2022-07-22T14:38:10;23.90;99.90
5358;DHT22;2702;51.014;7.170;2022-07-22T14:40:35;23.80;99.90
5358;DHT22;2702;51.014;7.170;2022-07-22T14:43:01;23.80;99.90
5358;DHT22;2702;51.014;7.170;2022-07-22T14:45:27;24.00;99.90
5358;DHT22;2702;51.014;7.170;2022-07-22T14:47:53;24.00;99.90
5358;DHT22;2702;51.014;7.170;2022-07-22T14:50:19;23.90;99.90
5358;DHT22;2702;51.014;7.170;2022-07-22T14:52:45;24.10;99.90
5358;DHT22;2702;51.014;7.170;2022-07-22T14:55:11;24.00;99.90
5358;DHT22;2702;51.014;7.170;2022-07-22T14:57:37;24.00;99.90
5358;DHT22;2702;51.014;7.170;2022-07-22T15:00:03;23.90;99.90
5358;DHT22;2702;51.014;7.170;2022-07-22T15:02:30;23.60;99.90
5358;DHT22;2702;51.014;7.170;2022-07-22T15:04:56;23.80;99.90
5358;DHT22;2702;51.014;7.170;2022-07-22T15:07:21;24.00;99.90
5358;DHT22;2702;51.014;7.170;2022-07-22T15:09:47;23.90;99.90
5358;DHT22;2702;51.014;7.170;2022-07-22T15:12:13;23.80;99.90
5358;DHT22;2702;51.014;7.170;2022-07-22T15:14:39;23.60;99.90
5358;DHT22;2702;51.014;7.170;2022-07-22T15:17:05;23.60;99.90
5358;DHT22;2702;51.014;7.170;2022-07-22T15:19:34;23.60;99.90
5358;DHT22;2702;51.014;7.170;2022-07-22T15:22:00;23.80;99.90
5358;DHT22;2702;51.014;7.170;2022-07-22T15:24:25;23.70;99.90
5358;DHT22;2702;51.014;7.170;2022-07-22T15:26:51;23.80;99.90
5358;DHT22;2702;51.014;7.170;2022-07-22T15:29:17;23.90;99.90
5358;DHT22;2702;51.014;7.170;2022-07-22T15:31:43;23.90;99.90
5358;DHT22;2702;51.014;7.170;2022-07-22T15:34:09;23.60;99.90
5358;DHT22;2702;51.014;7.170;2022-07-22T15:36:35;23.40;99.90
5358;DHT22;2702;51.014;7.170;2022-07-22T15:39:04;23.50;99.90
5358;DHT22;2702;51.014;7.170;2022-07-22T15:41:30;23.40;99.90
5358;DHT22;2702;51.014;7.170;2022-07-22T15:43:55;23.30;99.90
5358;DHT22;2702;51.014;7.170;2022-07-22T15:46:21;23.30;99.90
5358;DHT22;2702;51.014;7.170;2022-07-22T15:48:47;23.20;99.90
5358;DHT22;2702;51.014;7.170;2022-07-22T15:51:14;23.30;99.90
5358;DHT22;2702;51.014;7.170;2022-07-22T15:53:41;23.30;99.90
5358;DHT22;2702;51.014;7.170;2022-07-22T15:56:07;23.20;99.90
5358;DHT22;2702;51.014;7.170;2022-07-22T15:58:32;23.10;99.90
5358;DHT22;2702;51.014;7.170;2022-07-22T16:01:17;23.10;99.90
5358;DHT22;2702;51.014;7.170;2022-07-22T16:03:43;23.30;99.90
5358;DHT22;2702;51.014;7.170;2022-07-22T16:06:09;23.40;99.90
5358;DHT22;2702;51.014;7.170;2022-07-22T16:08:35;23.60;99.90
5358;DHT22;2702;51.014;7.170;2022-07-22T16:11:02;23.50;99.90
5358;DHT22;2702;51.014;7.170;2022-07-22T16:13:27;23.50;99.90
5358;DHT22;2702;51.014;7.170;2022-07-22T16:15:53;23.50;99.90
5358;DHT22;2702;51.014;7.170;2022-07-22T16:18:19;23.50;99.90
5358;DHT22;2702;51.014;7.170;2022-07-22T16:20:45;23.50;99.90
5358;DHT22;2702;51.014;7.170;2022-07-22T16:23:11;23.50;99.90
5358;DHT22;2702;51.014;7.170;2022-07-22T16:25:37;23.50;99.90
5358;DHT22;2702;51.014;7.170;2022-07-22T16:28:03;23.50;99.90
5358;DHT22;2702;51.014;7.170;2022-07-22T16:30:30;23.40;99.90
5358;DHT22;2702;51.014;7.170;2022-07-22T16:32:56;23.00;99.90
5358;DHT22;2702;51.014;7.170;2022-07-22T16:35:21;22.90;99.90